Time;durP1;ratioP1;P1;durP2;ratioP2;P2;SDS_P1;SDS_P2;PMS_P1;PMS_P2;Temp;Humidity;BMP_temperature;BMP_pressure;BME280_temperature;BME280_humidity;BME280_pressure;Samples;Min_cycle;Max_cycle;Signal;HPM_P1;HPM_P2
2023/10/16 00:01:10;;;;;;;3.63;3.03;;;22.90;63.10;;;;;;5041786;28;22455;-69
2023/10/16 00:03:42;;;;;;;3.27;2.97;;;22.90;63.00;;;;;;5043559;28;20469;-69
2023/10/16 00:06:12;;;;;;;3.40;3.10;;;22.90;63.00;;;;;;5038934;28;20895;-69
2023/10/16 00:08:48;;;;;;;3.53;2.60;;;22.90;63.00;;;;;;5048997;28;20499;-69
2023/10/16 00:11:23;;;;;;;2.70;2.50;;;22.90;63.00;;;;;;5051163;28;21017;-69
2023/10/16 00:13:52;;;;;;;3.67;2.23;;;22.90;63.00;;;;;;5046554;28;20480;-69
2023/10/16 00:16:21;;;;;;;2.50;2.30;;;22.90;63.00;;;;;;5050419;28;20924;-69
2023/10/16 00:18:53;;;;;;;2.50;2.30;;;22.90;63.00;;;;;;5052241;28;20487;-69
2023/10/16 00:21:24;;;;;;;3.27;2.57;;;22.80;63.00;;;;;;5031999;28;21139;-69
2023/10/16 00:23:55;;;;;;;2.33;2.13;;;22.80;63.00;;;;;;5044665;28;20549;-69
2023/10/16 00:26:25;;;;;;;2.90;2.70;;;22.80;63.00;;;;;;5050379;28;20446;-69
2023/10/16 00:29:07;;;;;;;2.70;2.50;;;22.80;62.90;;;;;;5048323;28;20459;-69
2023/10/16 00:31:42;;;;;;;2.60;2.33;;;22.80;62.90;;;;;;5046172;28;20469;-69
2023/10/16 00:34:10;;;;;;;2.70;2.50;;;22.80;62.80;;;;;;5059634;28;20880;-69
2023/10/16 00:36:39;;;;;;;2.73;2.53;;;22.80;62.80;;;;;;5064992;28;20513;-69
2023/10/16 00:39:13;;;;;;;2.77;2.57;;;22.80;62.80;;;;;;5050997;28;20461;-69
2023/10/16 00:41:46;;;;;;;2.80;2.60;;;22.80;62.70;;;;;;5033629;28;20470;-69
2023/10/16 00:44:17;;;;;;;2.00;1.90;;;22.80;62.70;;;;;;5039949;28;20466;-69
2023/10/16 00:46:48;;;;;;;2.60;2.23;;;22.80;62.70;;;;;;5050865;28;20485;-69
2023/10/16 00:49:19;;;;;;;3.43;2.43;;;22.80;62.70;;;;;;5038829;28;20463;-69
2023/10/16 00:51:49;;;;;;;2.57;2.37;;;22.80;62.70;;;;;;5044138;28;20454;-69
2023/10/16 00:54:28;;;;;;;2.63;2.43;;;22.80;62.70;;;;;;5048845;28;20871;-69
2023/10/16 00:56:59;;;;;;;3.93;2.77;;;22.80;62.70;;;;;;5042610;28;20453;-69
2023/10/16 00:59:28;;;;;;;3.20;2.30;;;22.80;62.60;;;;;;5039972;28;20492;-69
2023/10/16 01:02:07;;;;;;;2.97;2.53;;;22.80;62.60;;;;;;5038322;28;20462;-69
2023/10/16 01:04:36;;;;;;;5.70;2.50;;;22.80;62.60;;;;;;5064772;28;20476;-69
2023/10/16 01:07:05;;;;;;;2.20;2.00;;;22.80;62.50;;;;;;5048646;28;20469;-69
2023/10/16 01:09:35;;;;;;;2.30;2.10;;;22.80;62.50;;;;;;5049263;28;20447;-69
2023/10/16 01:12:07;;;;;;;2.30;2.10;;;22.80;62.50;;;;;;5047233;28;20485;-69
2023/10/16 01:14:37;;;;;;;2.60;2.40;;;22.80;62.40;;;;;;5050568;28;20549;-69
2023/10/16 01:17:08;;;;;;;2.30;2.10;;;22.80;62.40;;;;;;5040240;28;20565;-69
2023/10/16 01:19:38;;;;;;;2.90;2.40;;;22.80;62.40;;;;;;5038466;28;20461;-69
2023/10/16 01:22:11;;;;;;;2.50;2.30;;;22.80;62.30;;;;;;5043062;28;20461;-69
2023/10/16 01:24:45;;;;;;;2.27;2.07;;;22.80;62.30;;;;;;5042924;28;20458;-69
2023/10/16 01:27:26;;;;;;;2.53;2.33;;;22.80;62.20;;;;;;5044599;28;20509;-69
2023/10/16 01:29:56;;;;;;;3.10;2.90;;;22.70;62.30;;;;;;5042662;28;20487;-69
2023/10/16 01:32:25;;;;;;;2.57;2.37;;;22.70;62.20;;;;;;5046932;28;20493;-69
2023/10/16 01:34:55;;;;;;;3.57;2.47;;;22.70;62.20;;;;;;5039002;28;20509;-69
2023/10/16 01:37:25;;;;;;;2.30;2.10;;;22.70;62.20;;;;;;5036051;28;20471;-69
2023/10/16 01:40:14;;;;;;;2.77;2.30;;;22.70;62.10;;;;;;5043279;28;21042;-69
2023/10/16 01:42:43;;;;;;;2.30;2.10;;;22.70;62.10;;;;;;5049821;28;20471;-69
2023/10/16 01:45:14;;;;;;;2.73;2.50;;;22.70;62.10;;;;;;5043602;28;20474;-69
2023/10/16 01:47:43;;;;;;;3.97;2.33;;;22.70;62.10;;;;;;5033740;28;20988;-69
2023/10/16 01:50:20;;;;;;;2.80;2.40;;;22.70;62.10;;;;;;5051018;28;20463;-69
2023/10/16 01:52:50;;;;;;;2.73;2.47;;;22.70;62.00;;;;;;5050009;28;20471;-69
2023/10/16 01:55:21;;;;;;;2.03;1.83;;;22.70;62.00;;;;;;5039385;28;20492;-69
2023/10/16 01:57:50;;;;;;;2.90;2.20;;;22.70;62.00;;;;;;5059409;28;21095;-69
2023/10/16 02:00:24;;;;;;;2.57;2.37;;;22.70;61.90;;;;;;5034477;28;21070;-69
2023/10/16 02:02:54;;;;;;;2.37;2.20;;;22.70;61.90;;;;;;5039314;28;20557;-69
2023/10/16 02:05:23;;;;;;;2.23;1.97;;;22.70;61.90;;;;;;5052087;28;20467;-69
2023/10/16 02:07:56;;;;;;;2.70;2.50;;;22.70;61.90;;;;;;5049855;28;20868;-69
2023/10/16 02:10:26;;;;;;;2.87;2.60;;;22.70;61.80;;;;;;5049508;28;20969;-69
2023/10/16 02:12:54;;;;;;;2.70;2.40;;;22.70;61.80;;;;;;5047886;28;20523;-69
2023/10/16 02:15:22;;;;;;;2.30;2.00;;;22.70;61.80;;;;;;5050952;28;20463;-69
2023/10/16 02:17:51;;;;;;;3.80;2.10;;;22.60;61.80;;;;;;5049585;28;20486;-69
2023/10/16 02:20:26;;;;;;;3.00;2.50;;;22.60;61.70;;;;;;5053447;28;20514;-69
2023/10/16 02:22:54;;;;;;;1.90;1.80;;;22.60;61.70;;;;;;5064528;28;20462;-69
2023/10/16 02:25:23;;;;;;;2.43;2.33;;;22.60;61.70;;;;;;5049800;28;20446;-69
2023/10/16 02:27:54;;;;;;;2.20;2.10;;;22.60;61.70;;;;;;5045917;28;20808;-69
2023/10/16 02:30:35;;;;;;;2.27;2.17;;;22.60;61.60;;;;;;5049152;28;20501;-69
2023/10/16 02:33:14;;;;;;;2.70;2.20;;;22.60;61.60;;;;;;5036188;28;20480;-69
2023/10/16 02:35:48;;;;;;;5.47;2.23;;;22.60;61.60;;;;;;5050169;28;20452;-69
2023/10/16 02:38:23;;;;;;;3.80;2.00;;;22.60;61.60;;;;;;5051421;28;20470;-69
2023/10/16 02:40:54;;;;;;;2.30;2.17;;;22.60;61.50;;;;;;5037494;28;20924;-69
2023/10/16 02:43:25;;;;;;;2.30;2.10;;;22.60;61.40;;;;;;5050903;28;20435;-69
2023/10/16 02:45:53;;;;;;;2.60;2.40;;;22.60;61.50;;;;;;5050498;28;20460;-69
2023/10/16 02:48:22;;;;;;;2.80;2.37;;;22.60;61.50;;;;;;5053070;28;20534;-69
2023/10/16 02:50:53;;;;;;;2.40;2.20;;;22.60;61.50;;;;;;5044349;28;20468;-69
2023/10/16 02:53:25;;;;;;;3.83;2.13;;;22.60;61.50;;;;;;5033093;28;20474;-69
2023/10/16 02:55:57;;;;;;;2.83;2.20;;;22.60;61.50;;;;;;5040939;28;20471;-69
2023/10/16 02:58:29;;;;;;;3.03;2.23;;;22.60;61.50;;;;;;5040487;28;20816;-69
2023/10/16 03:00:59;;;;;;;1.93;1.83;;;22.60;61.30;;;;;;5044189;28;20498;-69
2023/10/16 03:03:28;;;;;;;2.30;2.10;;;22.60;61.40;;;;;;5036090;28;20545;-69
2023/10/16 03:05:59;;;;;;;2.13;1.93;;;22.60;61.40;;;;;;5031464;28;20845;-69
2023/10/16 03:08:30;;;;;;;2.67;2.47;;;22.50;61.40;;;;;;5033910;28;21098;-69
2023/10/16 03:11:04;;;;;;;2.40;2.20;;;22.50;61.40;;;;;;5039682;28;20445;-69
2023/10/16 03:13:35;;;;;;;1.90;1.73;;;22.50;61.30;;;;;;5057349;28;20475;-69
2023/10/16 03:16:07;;;;;;;2.70;2.50;;;22.50;61.30;;;;;;5059759;28;20463;-69
2023/10/16 03:18:42;;;;;;;2.43;2.30;;;22.50;61.30;;;;;;5061940;28;20500;-69
2023/10/16 03:23:55;;;;;;;2.70;2.10;;;22.50;61.30;;;;;;5048770;28;20937;-69
2023/10/16 03:26:28;;;;;;;2.10;2.00;;;22.50;61.20;;;;;;5079879;28;20475;-69
2023/10/16 03:29:00;;;;;;;2.03;1.93;;;22.50;61.30;;;;;;5052446;28;20961;-69
2023/10/16 03:31:29;;;;;;;2.70;2.50;;;22.40;61.40;;;;;;5057359;28;21109;-69
2023/10/16 03:33:59;;;;;;;2.40;2.20;;;22.40;61.40;;;;;;5068400;28;20571;-69
2023/10/16 03:36:28;;;;;;;2.03;1.87;;;22.40;61.40;;;;;;5053613;28;20552;-69
2023/10/16 03:38:59;;;;;;;1.97;1.87;;;22.40;61.30;;;;;;5052392;28;20473;-69
2023/10/16 03:41:32;;;;;;;2.00;1.90;;;22.40;61.30;;;;;;5048732;28;20515;-70
2023/10/16 03:44:07;;;;;;;2.13;2.03;;;22.40;61.30;;;;;;5043551;28;20540;-69
2023/10/16 03:46:38;;;;;;;2.80;2.60;;;22.40;61.30;;;;;;5031506;28;20442;-69
2023/10/16 03:49:07;;;;;;;3.30;2.43;;;22.40;61.20;;;;;;5031893;28;20543;-69
2023/10/16 03:51:38;;;;;;;2.13;1.87;;;22.40;61.20;;;;;;5051720;28;20464;-69
2023/10/16 03:54:06;;;;;;;1.90;1.80;;;22.40;61.20;;;;;;5056139;28;20497;-69
2023/10/16 03:56:35;;;;;;;2.80;1.73;;;22.30;61.20;;;;;;5053357;28;20450;-69
2023/10/16 03:59:06;;;;;;;2.00;1.90;;;22.40;61.20;;;;;;5054988;28;20463;-69
2023/10/16 04:01:37;;;;;;;2.17;2.00;;;22.30;61.20;;;;;;5033819;28;20458;-69
2023/10/16 04:04:12;;;;;;;2.90;2.70;;;22.30;61.20;;;;;;5033672;28;20466;-69
2023/10/16 04:06:41;;;;;;;2.27;2.07;;;22.40;61.10;;;;;;5040221;28;20535;-69
2023/10/16 04:09:10;;;;;;;2.60;1.97;;;22.40;61.00;;;;;;5048569;28;20488;-69
2023/10/16 04:11:38;;;;;;;1.83;1.73;;;22.40;60.90;;;;;;5045336;28;20462;-69
2023/10/16 04:14:14;;;;;;;1.93;1.83;;;22.40;60.90;;;;;;5046613;28;21061;-69
2023/10/16 04:16:54;;;;;;;2.37;2.27;;;22.40;60.70;;;;;;5036726;28;20463;-70
2023/10/16 04:19:52;;;;;;;2.67;2.47;;;22.50;60.70;;;;;;5046052;28;20469;-69
2023/10/16 04:22:24;;;;;;;2.37;2.17;;;22.50;60.60;;;;;;5044156;28;20473;-69
2023/10/16 04:24:55;;;;;;;2.30;2.10;;;22.50;60.60;;;;;;5045755;28;20497;-69
2023/10/16 04:27:33;;;;;;;2.57;2.00;;;22.60;60.50;;;;;;5036611;28;20647;-69
2023/10/16 04:33:13;;;;;;;2.07;1.90;;;22.60;60.30;;;;;;5050618;28;20470;-69
2023/10/16 04:38:55;;;;;;;2.13;1.73;;;22.60;60.30;;;;;;5035181;28;20485;-70
2023/10/16 04:44:49;;;;;;;2.53;2.33;;;22.60;60.40;;;;;;5035972;28;20450;-69
2023/10/16 04:47:17;;;;;;;1.83;1.73;;;22.60;60.60;;;;;;5038948;28;21322;-70
2023/10/16 04:49:59;;;;;;;2.30;2.10;;;22.60;60.60;;;;;;5035762;28;20648;-72
2023/10/16 04:53:06;;;;;;;2.73;2.47;;;22.60;60.60;;;;;;5041729;28;20541;-71
2023/10/16 05:00:56;;;;;;;2.23;2.13;;;22.50;60.60;;;;;;5038504;28;21274;-72
2023/10/16 05:03:35;;;;;;;2.20;2.00;;;22.50;60.70;;;;;;5034219;28;20466;-72
2023/10/16 05:06:11;;;;;;;2.53;2.33;;;22.50;60.70;;;;;;5039305;28;20532;-72
2023/10/16 05:08:38;;;;;;;2.60;2.30;;;22.50;60.90;;;;;;5039914;28;20485;-72
2023/10/16 05:13:56;;;;;;;2.50;2.07;;;22.40;61.00;;;;;;5039913;28;21193;-73
2023/10/16 05:16:35;;;;;;;2.33;2.00;;;22.40;61.30;;;;;;5033763;28;20474;-72
2023/10/16 05:19:16;;;;;;;2.20;2.00;;;22.40;61.40;;;;;;5044545;28;20491;-72
2023/10/16 05:22:01;;;;;;;3.17;2.10;;;22.40;61.50;;;;;;5046230;28;20465;-72
2023/10/16 06:14:22;;;;;;;3.83;2.53;;;22.40;62.00;;;;;;5051999;28;20432;-73
2023/10/16 06:16:53;;;;;;;3.10;2.60;;;22.40;62.00;;;;;;5046473;28;20545;-72
2023/10/16 06:19:22;;;;;;;2.33;2.13;;;22.40;62.00;;;;;;5047006;28;20465;-73
2023/10/16 06:21:54;;;;;;;2.33;2.13;;;22.40;62.00;;;;;;5035955;28;20489;-73
2023/10/16 06:24:32;;;;;;;2.80;2.53;;;22.40;62.00;;;;;;5036332;28;20471;-72
2023/10/16 06:27:08;;;;;;;2.40;2.30;;;22.50;62.00;;;;;;5044937;28;20583;-72
2023/10/16 06:29:40;;;;;;;2.07;1.93;;;22.50;62.00;;;;;;5049759;28;20489;-72
2023/10/16 06:32:18;;;;;;;2.17;1.80;;;22.40;62.00;;;;;;5048681;28;20785;-72
2023/10/16 06:34:47;;;;;;;2.47;2.27;;;22.40;62.00;;;;;;5072168;28;20453;-72
2023/10/16 06:37:17;;;;;;;2.90;2.10;;;22.40;62.00;;;;;;5039047;28;20451;-72
2023/10/16 06:39:48;;;;;;;2.20;2.00;;;22.40;62.00;;;;;;5041768;28;20457;-72
2023/10/16 06:42:18;;;;;;;2.50;2.30;;;22.40;62.00;;;;;;5046041;28;21073;-72
2023/10/16 06:44:53;;;;;;;2.17;1.97;;;22.40;62.00;;;;;;5048062;28;20467;-72
2023/10/16 06:47:34;;;;;;;1.87;1.70;;;22.40;62.00;;;;;;5047129;28;20541;-72
2023/10/16 06:50:26;;;;;;;2.30;2.10;;;22.40;62.00;;;;;;5043388;28;20530;-72
2023/10/16 06:52:55;;;;;;;2.63;2.20;;;22.40;62.00;;;;;;5040745;28;20466;-72
2023/10/16 06:55:25;;;;;;;2.03;1.80;;;22.40;62.00;;;;;;5042179;28;20563;-71
2023/10/16 06:57:54;;;;;;;2.97;2.03;;;22.40;62.10;;;;;;5048168;28;20463;-72
2023/10/16 07:00:26;;;;;;;2.43;1.80;;;22.40;62.10;;;;;;5040516;28;20608;-71
2023/10/16 07:02:55;;;;;;;2.23;2.10;;;22.30;62.10;;;;;;5035280;28;20508;-72
2023/10/16 07:05:24;;;;;;;2.33;2.23;;;22.40;62.20;;;;;;5038831;28;20546;-73
2023/10/16 07:07:56;;;;;;;2.17;1.97;;;22.30;62.10;;;;;;5047660;28;20474;-72
2023/10/16 07:10:27;;;;;;;2.90;2.70;;;22.30;62.10;;;;;;5043671;28;20454;-73
2023/10/16 07:12:58;;;;;;;2.20;2.00;;;22.30;62.20;;;;;;5043747;28;20458;-73
2023/10/16 07:15:29;;;;;;;1.87;1.77;;;22.40;62.20;;;;;;5044083;28;20481;-73
2023/10/16 07:18:02;;;;;;;2.50;2.20;;;22.40;62.20;;;;;;5042241;28;20486;-77
2023/10/16 07:20:30;;;;;;;6.00;2.00;;;22.40;62.20;;;;;;5039150;28;21046;-73
2023/10/16 07:23:00;;;;;;;4.67;2.53;;;22.40;62.60;;;;;;5044682;28;20453;-76
2023/10/16 07:25:47;;;;;;;2.90;2.30;;;22.40;62.60;;;;;;5045826;28;20458;-74
2023/10/16 07:28:18;;;;;;;2.50;2.30;;;22.40;62.80;;;;;;5052509;28;20549;-75
2023/10/16 07:30:46;;;;;;;3.50;2.50;;;22.50;62.60;;;;;;5049905;28;20466;-75
2023/10/16 07:33:15;;;;;;;4.67;1.97;;;22.50;62.60;;;;;;5058277;28;20457;-71
2023/10/16 07:35:44;;;;;;;4.57;2.53;;;22.50;62.40;;;;;;5051450;28;20473;-74
2023/10/16 07:38:13;;;;;;;3.00;2.80;;;22.50;62.30;;;;;;5049280;28;20450;-74
2023/10/16 07:40:43;;;;;;;2.20;1.90;;;22.60;62.10;;;;;;5050985;28;20458;-74
2023/10/16 07:43:11;;;;;;;2.27;2.07;;;22.60;62.00;;;;;;5037474;28;20466;-75
2023/10/16 07:45:44;;;;;;;2.53;2.33;;;22.60;61.80;;;;;;5060967;28;20443;-75
2023/10/16 07:48:20;;;;;;;2.77;2.37;;;22.70;61.60;;;;;;5046473;28;20458;-74
2023/10/16 07:50:50;;;;;;;2.47;2.27;;;22.70;61.40;;;;;;5050441;28;20508;-76
2023/10/16 07:53:18;;;;;;;2.67;2.00;;;22.70;61.20;;;;;;5047553;28;20956;-75
2023/10/16 07:55:51;;;;;;;2.33;1.80;;;22.70;61.10;;;;;;5041167;28;20987;-74
2023/10/16 07:58:23;;;;;;;2.57;2.20;;;22.70;60.90;;;;;;5046468;28;20828;-71
2023/10/16 08:03:45;;;;;;;3.67;2.67;;;22.80;60.70;;;;;;5083101;28;20549;-74
2023/10/16 08:06:17;;;;;;;2.20;2.00;;;22.80;60.70;;;;;;5051189;28;20446;-75
2023/10/16 08:08:48;;;;;;;2.13;1.80;;;22.80;60.70;;;;;;5051937;28;20446;-74
2023/10/16 08:11:18;;;;;;;2.23;2.13;;;22.80;60.60;;;;;;5045578;28;20458;-75
2023/10/16 08:13:51;;;;;;;1.97;1.87;;;22.80;60.60;;;;;;5050143;28;21030;-75
2023/10/16 08:16:24;;;;;;;2.03;1.93;;;22.80;60.50;;;;;;5037970;28;20867;-76
2023/10/16 08:18:57;;;;;;;2.70;2.50;;;22.80;60.30;;;;;;5049698;28;20453;-74
2023/10/16 08:21:25;;;;;;;2.60;2.17;;;22.80;60.30;;;;;;5040764;28;21166;-72
2023/10/16 08:23:55;;;;;;;1.80;1.70;;;22.80;60.20;;;;;;5046077;28;20489;-74
2023/10/16 08:26:41;;;;;;;2.43;1.97;;;22.80;60.20;;;;;;5042741;28;20486;-74
2023/10/16 08:29:17;;;;;;;4.33;2.43;;;22.80;60.10;;;;;;5049895;28;20526;-74
2023/10/16 08:31:47;;;;;;;2.00;1.90;;;22.80;60.10;;;;;;5049718;28;20973;-74
2023/10/16 08:34:19;;;;;;;2.03;1.90;;;22.80;60.10;;;;;;5044145;28;20471;-74
2023/10/16 08:36:51;;;;;;;1.77;1.67;;;22.80;60.10;;;;;;5058034;28;20892;-75
2023/10/16 08:39:21;;;;;;;2.00;1.90;;;22.80;60.10;;;;;;5034595;28;20830;-75
2023/10/16 08:42:01;;;;;;;2.47;2.00;;;22.80;60.10;;;;;;5044746;28;20458;-76
2023/10/16 08:44:29;;;;;;;2.90;1.90;;;22.90;60.00;;;;;;5046073;28;20869;-74
2023/10/16 08:47:16;;;;;;;2.27;2.17;;;22.90;59.90;;;;;;5039249;28;20456;-73
2023/10/16 08:49:52;;;;;;;2.07;1.90;;;22.90;59.80;;;;;;5050185;28;20974;-73
2023/10/16 08:52:34;;;;;;;1.60;1.50;;;22.90;59.80;;;;;;5050274;28;20947;-75
2023/10/16 08:55:14;;;;;;;1.83;1.73;;;22.90;59.70;;;;;;5048881;28;20465;-76
2023/10/16 08:57:46;;;;;;;2.77;2.10;;;22.90;59.70;;;;;;5039546;28;21010;-75
2023/10/16 09:00:19;;;;;;;1.43;1.33;;;22.90;59.70;;;;;;5049325;28;20479;-73
2023/10/16 09:02:52;;;;;;;1.80;1.70;;;22.90;59.70;;;;;;5037706;28;20472;-75
2023/10/16 09:05:21;;;;;;;1.87;1.63;;;22.90;59.80;;;;;;5042016;28;20463;-74
2023/10/16 09:07:51;;;;;;;1.40;1.30;;;22.90;59.80;;;;;;5037098;28;20501;-75
2023/10/16 09:10:21;;;;;;;2.33;1.97;;;22.90;59.80;;;;;;5040343;28;21015;-76
2023/10/16 09:13:13;;;;;;;1.87;1.73;;;23.00;59.70;;;;;;5048294;28;20550;-77
2023/10/16 09:15:45;;;;;;;1.40;1.30;;;23.00;59.70;;;;;;5045662;28;21022;-74
2023/10/16 09:18:16;;;;;;;1.70;1.60;;;23.00;59.70;;;;;;5045922;28;20489;-75
2023/10/16 09:20:46;;;;;;;2.60;2.33;;;23.00;59.60;;;;;;5050585;28;20444;-74
2023/10/16 09:23:14;;;;;;;1.60;1.50;;;23.00;59.60;;;;;;5050951;28;20450;-76
2023/10/16 09:25:47;;;;;;;2.40;1.67;;;23.10;59.60;;;;;;5050189;28;21034;-72
2023/10/16 09:28:19;;;;;;;1.87;1.77;;;23.10;59.50;;;;;;5047970;28;20471;-75
2023/10/16 09:30:48;;;;;;;1.50;1.40;;;23.10;59.50;;;;;;5040632;28;20809;-76
2023/10/16 09:33:34;;;;;;;1.70;1.60;;;23.10;59.50;;;;;;5049456;28;21275;-76
2023/10/16 09:36:20;;;;;;;1.47;1.37;;;23.10;59.50;;;;;;5045155;28;20956;-75
2023/10/16 09:38:52;;;;;;;1.30;1.27;;;23.10;59.60;;;;;;5041710;28;20458;-76
2023/10/16 09:41:39;;;;;;;1.90;1.80;;;23.10;59.60;;;;;;5043965;28;20459;-77
2023/10/16 09:44:22;;;;;;;2.00;1.80;;;23.10;59.50;;;;;;5043521;28;20951;-76
2023/10/16 09:46:54;;;;;;;1.57;1.47;;;23.10;59.40;;;;;;5052570;28;20443;-75
2023/10/16 09:49:24;;;;;;;1.83;1.73;;;23.10;59.40;;;;;;5054178;28;20450;-73
2023/10/16 09:51:59;;;;;;;1.80;1.70;;;23.10;59.30;;;;;;5053864;28;20465;-75
2023/10/16 09:54:30;;;;;;;2.03;1.80;;;23.10;59.40;;;;;;5054525;28;20443;-75
2023/10/16 09:57:00;;;;;;;1.60;1.50;;;23.10;59.40;;;;;;5053357;28;20507;-76
2023/10/16 09:59:38;;;;;;;1.60;1.50;;;23.10;59.30;;;;;;5049954;28;20502;-75
2023/10/16 10:02:08;;;;;;;2.10;1.73;;;23.20;59.10;;;;;;5044030;28;20535;-74
2023/10/16 10:04:39;;;;;;;2.40;2.20;;;23.20;59.00;;;;;;5048619;28;20468;-77
2023/10/16 10:07:13;;;;;;;1.70;1.60;;;23.20;59.00;;;;;;5051672;28;21016;-75
2023/10/16 10:09:46;;;;;;;1.57;1.47;;;23.20;59.10;;;;;;5075424;28;20858;-74
2023/10/16 10:12:37;;;;;;;1.50;1.40;;;23.30;59.20;;;;;;5048458;28;20854;-74
2023/10/16 10:15:26;;;;;;;2.13;2.03;;;23.30;59.10;;;;;;5046086;28;20516;-74
2023/10/16 10:18:17;;;;;;;1.97;1.87;;;23.40;59.00;;;;;;5045706;28;21054;-76
2023/10/16 10:20:48;;;;;;;2.23;1.40;;;23.50;59.00;;;;;;5049836;28;20472;-72
2023/10/16 10:23:16;;;;;;;1.90;1.80;;;23.60;58.90;;;;;;5044967;28;20961;-74
2023/10/16 10:25:47;;;;;;;1.80;1.70;;;23.60;58.90;;;;;;5045777;28;20957;-74
2023/10/16 10:28:23;;;;;;;3.33;1.60;;;23.70;58.90;;;;;;5050606;28;20455;-75
2023/10/16 10:31:02;;;;;;;3.53;1.77;;;23.80;58.70;;;;;;5042912;28;20538;-75
2023/10/16 10:33:38;;;;;;;2.00;1.90;;;23.90;58.50;;;;;;5050571;28;20462;-75
2023/10/16 10:36:32;;;;;;;1.83;1.50;;;24.00;58.10;;;;;;5047724;28;20496;-72
2023/10/16 10:39:39;;;;;;;2.13;1.93;;;24.20;57.60;;;;;;5042054;28;20496;-76
2023/10/16 10:42:16;;;;;;;2.30;2.10;;;24.40;57.00;;;;;;5043262;28;21301;-76
2023/10/16 10:44:54;;;;;;;1.40;1.33;;;24.60;56.10;;;;;;5048311;28;20499;-76
2023/10/16 10:47:30;;;;;;;2.10;1.90;;;24.80;55.60;;;;;;5043193;28;21218;-76
2023/10/16 10:50:12;;;;;;;1.73;1.63;;;25.00;55.20;;;;;;5048332;28;20961;-75
2023/10/16 10:52:41;;;;;;;1.67;1.57;;;25.10;54.80;;;;;;5046756;28;20812;-76
2023/10/16 10:55:18;;;;;;;1.77;1.67;;;25.20;53.90;;;;;;5048474;28;20464;-76
2023/10/16 10:57:48;;;;;;;1.80;1.70;;;25.30;53.90;;;;;;5041589;28;20477;-74
2023/10/16 11:00:43;;;;;;;2.40;1.97;;;25.40;53.70;;;;;;5042938;28;20612;-74
2023/10/16 11:03:30;;;;;;;2.20;1.87;;;25.40;53.40;;;;;;5038154;28;20455;-77
2023/10/16 11:05:58;;;;;;;1.90;1.80;;;25.50;53.20;;;;;;5045907;28;20457;-77
2023/10/16 11:08:33;;;;;;;1.97;1.80;;;25.60;52.90;;;;;;5053137;28;20457;-75
2023/10/16 11:11:03;;;;;;;2.20;2.00;;;25.60;52.70;;;;;;5052255;28;21000;-77
2023/10/16 11:13:32;;;;;;;3.73;2.10;;;25.60;52.60;;;;;;5048385;28;21184;-77
2023/10/16 11:16:00;;;;;;;2.03;1.80;;;25.60;52.70;;;;;;5042019;28;20479;-77
2023/10/16 11:18:32;;;;;;;3.10;1.90;;;25.60;52.90;;;;;;5039818;28;20474;-76
2023/10/16 11:21:04;;;;;;;1.73;1.63;;;25.50;52.80;;;;;;5045021;28;20462;-77
2023/10/16 11:23:38;;;;;;;1.60;1.50;;;25.50;52.90;;;;;;5048862;28;20977;-75
2023/10/16 11:26:12;;;;;;;1.73;1.63;;;25.50;53.00;;;;;;5046200;28;21019;-73
2023/10/16 11:28:48;;;;;;;2.20;2.00;;;25.50;52.90;;;;;;5042349;28;20459;-76
2023/10/16 11:31:19;;;;;;;2.30;1.60;;;25.50;53.20;;;;;;5037498;28;20465;-77
2023/10/16 11:34:03;;;;;;;2.70;1.90;;;25.50;53.00;;;;;;5040872;28;20452;-76
2023/10/16 11:36:34;;;;;;;2.10;1.80;;;25.50;53.10;;;;;;5048899;28;21016;-77
2023/10/16 11:39:19;;;;;;;1.60;1.50;;;25.60;52.70;;;;;;5038709;28;20489;-75
2023/10/16 11:41:51;;;;;;;1.47;1.37;;;25.70;52.70;;;;;;5042469;28;20462;-77
2023/10/16 11:44:25;;;;;;;1.90;1.80;;;25.70;52.90;;;;;;5045535;28;20458;-77
2023/10/16 11:46:55;;;;;;;1.57;1.40;;;25.80;52.60;;;;;;5042524;28;20949;-76
2023/10/16 11:49:31;;;;;;;1.77;1.67;;;25.90;52.50;;;;;;5039488;28;21070;-74
2023/10/16 11:52:19;;;;;;;2.80;2.10;;;25.90;52.50;;;;;;5037462;28;20455;-77
2023/10/16 11:54:48;;;;;;;2.63;1.80;;;25.90;52.70;;;;;;5045740;28;20467;-77
2023/10/16 11:57:17;;;;;;;2.80;1.70;;;26.00;53.00;;;;;;5042872;28;20513;-75
2023/10/16 11:59:45;;;;;;;1.50;1.40;;;26.00;53.00;;;;;;5043327;28;20547;-72
2023/10/16 12:02:17;;;;;;;2.40;1.30;;;26.00;53.10;;;;;;5042121;28;20456;-70
2023/10/16 12:04:47;;;;;;;3.03;1.90;;;26.10;53.00;;;;;;5043303;28;20467;-70
2023/10/16 12:07:16;;;;;;;2.00;1.80;;;26.10;53.10;;;;;;5034588;28;20463;-70
2023/10/16 12:09:48;;;;;;;1.50;1.40;;;26.10;53.20;;;;;;5034388;28;20471;-69
2023/10/16 12:12:20;;;;;;;1.73;1.50;;;26.10;53.30;;;;;;5038327;28;20947;-69
2023/10/16 12:14:50;;;;;;;1.40;1.40;;;26.10;53.40;;;;;;5037634;28;20452;-70
2023/10/16 12:17:20;;;;;;;1.57;1.47;;;26.10;53.60;;;;;;5038875;28;20525;-71
2023/10/16 12:19:51;;;;;;;1.70;1.60;;;26.10;53.70;;;;;;5036662;28;20477;-71
2023/10/16 12:22:21;;;;;;;1.90;1.53;;;26.10;53.80;;;;;;5042973;28;20458;-70
2023/10/16 12:24:50;;;;;;;4.10;1.63;;;26.10;53.80;;;;;;5040818;28;20547;-70
2023/10/16 12:27:19;;;;;;;1.83;1.73;;;26.10;53.90;;;;;;5042498;28;20458;-71
2023/10/16 12:29:47;;;;;;;1.60;1.50;;;26.20;53.90;;;;;;5036202;28;20471;-71
2023/10/16 12:32:15;;;;;;;1.47;1.37;;;26.20;54.00;;;;;;5045115;28;20490;-70
2023/10/16 12:34:43;;;;;;;2.00;1.80;;;26.20;54.00;;;;;;5039810;28;20463;-71
2023/10/16 12:37:13;;;;;;;3.50;3.23;;;26.30;54.10;;;;;;5033832;28;20475;-70
2023/10/16 12:39:46;;;;;;;1.43;1.37;;;26.30;54.10;;;;;;5037082;28;20836;-70
2023/10/16 12:42:16;;;;;;;1.57;1.30;;;26.30;54.10;;;;;;5036948;28;20469;-70
2023/10/16 12:44:44;;;;;;;1.60;1.50;;;26.40;54.10;;;;;;5043980;28;20470;-70
2023/10/16 12:47:13;;;;;;;2.43;2.23;;;26.40;54.10;;;;;;5041425;28;20462;-71
2023/10/16 12:49:45;;;;;;;1.80;1.70;;;26.40;54.20;;;;;;5039372;28;20459;-70
2023/10/16 12:52:14;;;;;;;1.77;1.40;;;26.50;54.20;;;;;;5034832;28;20460;-71
2023/10/16 12:54:45;;;;;;;1.60;1.50;;;26.50;54.20;;;;;;5040161;28;20475;-71
2023/10/16 12:57:13;;;;;;;1.33;1.23;;;26.60;54.20;;;;;;5040531;28;20463;-69
2023/10/16 12:59:42;;;;;;;1.43;1.33;;;26.60;54.20;;;;;;5037088;28;20502;-72
2023/10/16 13:02:10;;;;;;;1.87;1.73;;;26.50;54.30;;;;;;5040801;28;20469;-70
2023/10/16 13:04:39;;;;;;;1.60;1.50;;;26.60;54.30;;;;;;5039308;28;20461;-71
2023/10/16 13:07:08;;;;;;;2.10;1.90;;;26.60;54.30;;;;;;5040854;28;20517;-70
2023/10/16 13:09:45;;;;;;;2.10;1.53;;;26.60;54.20;;;;;;5033571;28;21018;-70
2023/10/16 13:12:13;;;;;;;1.67;1.57;;;26.50;54.40;;;;;;5038684;28;20466;-71
2023/10/16 13:14:42;;;;;;;2.00;1.87;;;26.40;54.30;;;;;;5036977;28;20453;-71
2023/10/16 13:17:10;;;;;;;1.50;1.40;;;26.40;54.50;;;;;;5032787;28;20980;-71
2023/10/16 13:19:38;;;;;;;2.30;1.60;;;26.40;54.50;;;;;;5031226;28;20825;-70
2023/10/16 13:22:10;;;;;;;1.67;1.57;;;26.40;54.60;;;;;;5035822;28;21266;-70
2023/10/16 13:24:42;;;;;;;1.57;1.47;;;26.40;54.60;;;;;;5069040;28;20971;-71
2023/10/16 13:27:11;;;;;;;2.83;1.40;;;26.40;54.70;;;;;;5036616;28;20468;-71
2023/10/16 13:29:40;;;;;;;1.73;1.10;;;26.40;54.80;;;;;;5034832;28;20455;-70
2023/10/16 13:32:09;;;;;;;1.23;1.23;;;26.30;54.80;;;;;;5036787;28;20463;-71
2023/10/16 13:34:38;;;;;;;1.40;1.30;;;26.30;55.00;;;;;;5040404;28;20493;-71
2023/10/16 13:37:09;;;;;;;1.90;1.80;;;26.30;55.10;;;;;;5038978;28;20543;-71
2023/10/16 13:39:39;;;;;;;2.30;1.30;;;26.30;55.20;;;;;;5040867;28;20990;-71
2023/10/16 13:42:09;;;;;;;1.30;1.20;;;26.30;55.40;;;;;;5044235;28;20455;-70
2023/10/16 13:44:40;;;;;;;1.83;1.73;;;26.30;55.50;;;;;;5046647;28;20466;-71
2023/10/16 13:47:10;;;;;;;1.83;1.53;;;26.20;55.70;;;;;;5041445;28;20466;-71
2023/10/16 13:49:38;;;;;;;2.83;1.53;;;26.30;55.80;;;;;;5040377;28;20462;-70
2023/10/16 13:52:07;;;;;;;1.40;1.30;;;26.20;55.90;;;;;;5044499;28;20464;-71
2023/10/16 13:54:38;;;;;;;1.73;1.63;;;26.20;56.00;;;;;;5043803;28;20532;-71
2023/10/16 13:57:07;;;;;;;3.90;1.43;;;26.20;56.10;;;;;;5041748;28;20589;-70
2023/10/16 13:59:35;;;;;;;1.67;1.40;;;26.20;56.20;;;;;;5044380;28;20501;-70
2023/10/16 14:02:05;;;;;;;1.50;1.13;;;26.20;56.30;;;;;;5044323;28;20555;-70
2023/10/16 14:04:34;;;;;;;2.67;1.53;;;26.20;56.40;;;;;;5043022;28;21532;-70
2023/10/16 14:07:07;;;;;;;1.63;1.53;;;26.20;56.40;;;;;;5047183;28;20455;-71
2023/10/16 14:09:36;;;;;;;4.53;1.40;;;26.20;56.50;;;;;;5047948;28;20546;-70
2023/10/16 14:12:05;;;;;;;1.33;1.23;;;26.20;56.60;;;;;;5046994;28;20555;-70
2023/10/16 14:14:34;;;;;;;1.50;1.40;;;26.20;56.70;;;;;;5044987;28;20512;-71
2023/10/16 14:17:03;;;;;;;1.33;1.23;;;26.20;56.70;;;;;;5048076;28;20440;-71
2023/10/16 14:19:35;;;;;;;1.57;1.23;;;26.20;56.80;;;;;;5048545;28;20561;-71
2023/10/16 14:22:06;;;;;;;1.23;1.13;;;26.20;56.80;;;;;;5048947;28;20447;-72
2023/10/16 14:24:35;;;;;;;1.10;1.00;;;26.20;56.90;;;;;;5049400;28;20454;-70
2023/10/16 14:27:04;;;;;;;1.10;1.10;;;26.20;56.90;;;;;;5044230;28;20454;-70
2023/10/16 14:29:38;;;;;;;2.43;1.33;;;26.20;57.00;;;;;;5044172;28;20443;-71